createdAt,value
2019-05-03T00:02:28.596Z,14.18
2019-05-03T00:05:27.895Z,14.13
2019-05-03T00:08:07.799Z,14.26
2019-05-03T00:10:42.643Z,14.34
2019-05-03T00:13:19.012Z,14.34
2019-05-03T00:16:12.318Z,14.28
2019-05-03T00:18:47.304Z,14.28
2019-05-03T00:21:22.289Z,14.27
2019-05-03T00:23:57.262Z,14.30
2019-05-03T00:26:32.133Z,14.27
2019-05-03T00:29:06.860Z,14.24
2019-05-03T00:31:42.328Z,14.22
2019-05-03T00:34:21.869Z,14.26
2019-05-03T00:36:58.757Z,14.22
2019-05-03T00:39:38.554Z,14.24
2019-05-03T00:42:13.296Z,14.02
2019-05-03T00:44:47.978Z,13.98
2019-05-03T00:47:22.383Z,14.04
2019-05-03T00:49:57.299Z,14.04
2019-05-03T00:52:31.993Z,14.07
2019-05-03T00:55:16.188Z,14.09
2019-05-03T00:57:43.735Z,13.92
2019-05-03T01:00:18.305Z,13.92
2019-05-03T01:02:53.129Z,13.80
2019-05-03T01:05:27.964Z,13.84
2019-05-03T01:08:02.734Z,13.94
2019-05-03T01:10:37.288Z,13.94
2019-05-03T01:13:12.404Z,13.90
2019-05-03T01:15:57.288Z,13.87
2019-05-03T01:18:32.447Z,13.90
2019-05-03T01:21:07.289Z,13.96
2019-05-03T01:23:42.293Z,13.93
2019-05-03T01:26:16.879Z,13.80
2019-05-03T01:28:49.716Z,13.72
2019-05-03T01:31:23.944Z,13.63
2019-05-03T01:33:58.184Z,13.68
2019-05-03T01:36:32.717Z,13.64
2019-05-03T01:39:07.672Z,13.63
2019-05-03T01:41:42.335Z,13.72
2019-05-03T01:44:16.738Z,13.72
2019-05-03T01:46:51.599Z,13.65
2019-05-03T01:49:37.125Z,13.62
2019-05-03T01:52:19.351Z,13.66
2019-05-03T01:54:53.952Z,13.69
2019-05-03T01:57:28.242Z,13.68
2019-05-03T02:00:02.933Z,13.64
2019-05-03T02:02:48.650Z,13.68
2019-05-03T02:05:42.946Z,13.75
2019-05-03T02:08:17.357Z,13.39
2019-05-03T02:10:51.864Z,13.39
2019-05-03T02:13:25.034Z,13.05
2019-05-03T02:15:57.861Z,12.96
2019-05-03T02:18:32.114Z,12.91
2019-05-03T02:21:06.643Z,12.92
2019-05-03T02:23:42.563Z,12.92
2019-05-03T02:26:16.944Z,12.90
2019-05-03T02:28:52.757Z,12.85
2019-05-03T02:31:27.119Z,12.85
2019-05-03T02:34:03.529Z,12.90
2019-05-03T02:36:38.285Z,12.90
2019-05-03T02:39:14.574Z,12.96
2019-05-03T02:41:54.487Z,12.94
2019-05-03T02:44:26.689Z,13.00
2019-05-03T02:47:36.879Z,13.01
2019-05-03T02:50:16.635Z,13.00
2019-05-03T02:52:51.288Z,12.85
2019-05-03T02:55:26.400Z,12.90
2019-05-03T02:58:00.960Z,12.75
2019-05-03T03:00:59.286Z,12.50
2019-05-03T03:03:36.376Z,12.50
2019-05-03T03:06:10.973Z,12.50
2019-05-03T03:08:48.280Z,12.55
2019-05-03T03:11:26.139Z,12.55
2019-05-03T03:14:01.952Z,12.41
2019-05-03T03:16:37.782Z,12.02
2019-05-03T03:19:11.013Z,12.02
2019-05-03T03:21:48.344Z,11.91
2019-05-03T03:24:26.696Z,11.86
2019-05-03T03:27:05.317Z,11.78
2019-05-03T03:29:41.118Z,11.61
2019-05-03T03:32:30.402Z,11.63
2019-05-03T03:35:21.798Z,11.44
2019-05-03T03:37:56.085Z,11.44
2019-05-03T03:40:32.109Z,11.36
2019-05-03T03:43:07.420Z,11.36
2019-05-03T03:45:45.492Z,11.35
2019-05-03T03:48:20.287Z,11.41
2019-05-03T03:50:56.282Z,11.37
2019-05-03T03:53:35.625Z,11.40
2019-05-03T03:56:12.274Z,11.42
2019-05-03T03:58:46.906Z,11.44
2019-05-03T04:01:22.153Z,11.42
2019-05-03T04:03:57.108Z,11.50
2019-05-03T04:06:46.610Z,11.49
2019-05-03T04:09:20.347Z,11.51
2019-05-03T04:11:56.798Z,11.51
2019-05-03T04:14:37.551Z,11.50
2019-05-03T04:17:45.441Z,11.50
2019-05-03T04:20:21.672Z,11.48
2019-05-03T04:22:56.611Z,11.48
2019-05-03T04:25:31.677Z,11.50
2019-05-03T04:28:06.368Z,11.48
2019-05-03T04:30:40.865Z,11.41
2019-05-03T04:33:16.046Z,11.33
2019-05-03T04:35:50.481Z,11.33
2019-05-03T04:38:25.661Z,11.33
2019-05-03T04:41:01.359Z,11.39
2019-05-03T04:43:37.291Z,11.37
2019-05-03T04:46:25.851Z,11.42
2019-05-03T04:49:00.258Z,11.43
2019-05-03T04:51:35.209Z,11.41
2019-05-03T04:54:27.565Z,11.34
2019-05-03T04:57:02.325Z,11.36
2019-05-03T04:59:37.286Z,11.36
2019-05-03T05:02:12.071Z,11.26
2019-05-03T05:04:46.733Z,11.26
2019-05-03T05:07:20.034Z,11.26
2019-05-03T05:09:55.853Z,11.14
2019-05-03T05:12:30.277Z,11.00
2019-05-03T05:15:05.305Z,10.99
2019-05-03T05:17:46.877Z,11.04
2019-05-03T05:20:38.990Z,11.01
2019-05-03T05:23:11.843Z,10.95
2019-05-03T05:25:52.319Z,10.86
2019-05-03T05:28:36.521Z,10.79
2019-05-03T05:31:11.269Z,10.63
2019-05-03T05:33:45.788Z,10.63
2019-05-03T05:36:20.696Z,10.68
2019-05-03T05:38:56.287Z,10.66
2019-05-03T05:41:31.274Z,10.67
2019-05-03T05:44:06.424Z,10.62
2019-05-03T05:46:48.370Z,10.59
2019-05-03T05:49:40.624Z,10.60
2019-05-03T05:52:15.522Z,10.57
2019-05-03T05:54:57.387Z,10.65
2019-05-03T05:58:01.966Z,10.58
2019-05-03T06:00:35.813Z,10.55
2019-05-03T06:03:10.279Z,10.43
2019-05-03T06:05:45.275Z,10.43
2019-05-03T06:08:37.629Z,10.38
2019-05-03T06:11:30.060Z,10.35
2019-05-03T06:14:24.514Z,10.38
2019-05-03T06:17:14.733Z,10.32
2019-05-03T06:19:57.950Z,10.42
2019-05-03T06:22:49.736Z,10.42
2019-05-03T06:25:29.330Z,10.42
2019-05-03T06:29:38.091Z,10.55
2019-05-03T06:32:30.282Z,10.31
2019-05-03T06:35:05.268Z,10.31
2019-05-03T06:37:45.880Z,10.41
2019-05-03T06:40:21.259Z,10.38
2019-05-03T06:43:09.044Z,10.37
2019-05-03T06:45:41.130Z,10.30
2019-05-03T06:48:17.704Z,10.39
2019-05-03T06:50:52.373Z,10.47
2019-05-03T06:53:27.301Z,10.54
2019-05-03T06:56:04.018Z,10.60
2019-05-03T06:58:38.890Z,10.68
2019-05-03T07:01:29.423Z,10.77
2019-05-03T07:04:15.279Z,10.74
2019-05-03T07:07:07.748Z,10.88
2019-05-03T07:09:54.878Z,10.95
2019-05-03T07:12:31.278Z,11.02
2019-05-03T07:15:06.137Z,10.99
2019-05-03T07:17:41.262Z,11.01
2019-05-03T07:20:16.286Z,10.85
2019-05-03T07:22:51.281Z,10.85
2019-05-03T07:25:26.886Z,10.85
2019-05-03T07:28:01.516Z,10.85
2019-05-03T07:30:37.080Z,10.79
2019-05-03T07:33:17.698Z,10.82
2019-05-03T07:35:54.662Z,10.83
2019-05-03T07:38:29.257Z,10.92
2019-05-03T07:43:36.047Z,11.04
2019-05-03T07:46:11.255Z,11.04
2019-05-03T07:48:46.278Z,10.94
2019-05-03T07:51:20.885Z,10.86
2019-05-03T07:53:55.636Z,10.90
2019-05-03T07:56:35.611Z,10.90
2019-05-03T07:59:10.455Z,10.92
2019-05-03T08:01:48.409Z,10.97
2019-05-03T08:04:25.408Z,10.98
2019-05-03T08:06:59.928Z,11.04
2019-05-03T08:09:35.128Z,10.98
2019-05-03T08:12:09.943Z,10.95
2019-05-03T08:14:44.673Z,11.05
2019-05-03T08:17:19.353Z,10.90
2019-05-03T08:19:55.198Z,10.96
2019-05-03T08:22:30.386Z,11.11
2019-05-03T08:25:05.892Z,11.40
2019-05-03T08:27:39.307Z,11.43
2019-05-03T08:30:17.284Z,11.49
2019-05-03T08:33:08.278Z,11.64
2019-05-03T08:35:44.908Z,11.83
2019-05-03T08:38:19.910Z,11.71
2019-05-03T08:40:56.378Z,11.55
2019-05-03T08:43:31.475Z,11.74
2019-05-03T08:46:07.283Z,11.82
2019-05-03T08:48:42.275Z,11.78
2019-05-03T08:51:17.209Z,11.78
2019-05-03T08:53:52.624Z,12.02
2019-05-03T08:56:27.481Z,11.89
2019-05-03T08:59:02.286Z,11.82
2019-05-03T09:01:39.439Z,11.84
2019-05-03T09:04:15.342Z,11.60
2019-05-03T09:06:49.777Z,11.46
2019-05-03T09:09:34.714Z,11.45
2019-05-03T09:12:07.537Z,11.45
2019-05-03T09:14:45.805Z,11.49
2019-05-03T09:17:18.941Z,11.37
2019-05-03T09:19:54.828Z,11.32
2019-05-03T09:22:29.905Z,11.28
2019-05-03T09:25:04.989Z,11.18
2019-05-03T09:27:41.897Z,11.18
2019-05-03T09:30:17.272Z,11.08
2019-05-03T09:32:52.286Z,11.10
2019-05-03T09:35:32.908Z,11.03
2019-05-03T09:38:05.755Z,11.12
2019-05-03T09:40:40.590Z,11.01
2019-05-03T09:43:15.739Z,11.13
2019-05-03T09:45:49.272Z,11.57
2019-05-03T09:48:25.521Z,12.15
2019-05-03T09:51:00.305Z,12.15
2019-05-03T09:53:40.765Z,12.21
2019-05-03T09:56:15.661Z,12.21
2019-05-03T09:58:49.119Z,12.36
2019-05-03T10:01:25.472Z,12.47
2019-05-03T10:04:01.302Z,12.47
2019-05-03T10:06:36.127Z,12.20
2019-05-03T10:09:11.286Z,12.06
2019-05-03T10:11:46.554Z,12.07
2019-05-03T10:14:20.295Z,11.64
2019-05-03T10:17:09.908Z,11.64
2019-05-03T10:19:45.906Z,11.67
2019-05-03T10:22:21.333Z,11.81
2019-05-03T10:24:55.943Z,11.77
2019-05-03T10:27:34.695Z,11.69
2019-05-03T10:30:12.948Z,11.67
2019-05-03T10:32:46.951Z,11.70
2019-05-03T10:35:22.129Z,11.70
2019-05-03T10:37:57.275Z,11.70
2019-05-03T10:40:32.279Z,11.81
2019-05-03T10:43:09.553Z,11.94
2019-05-03T10:45:44.988Z,12.07
2019-05-03T10:48:21.333Z,11.97
2019-05-03T10:50:56.669Z,11.97
2019-05-03T10:53:38.490Z,11.99
2019-05-03T10:56:24.569Z,11.86
2019-05-03T10:59:02.285Z,11.69
2019-05-03T11:01:54.761Z,11.69
2019-05-03T11:04:31.287Z,11.46
2019-05-03T11:07:06.285Z,11.40
2019-05-03T11:09:49.869Z,11.40
2019-05-03T11:12:19.506Z,11.43
2019-05-03T11:14:54.325Z,11.37
2019-05-03T11:17:29.627Z,11.57
2019-05-03T11:20:05.264Z,11.68
2019-05-03T11:22:41.080Z,11.80
2019-05-03T11:25:16.281Z,12.13
2019-05-03T11:27:55.351Z,12.13
2019-05-03T11:30:30.324Z,12.15
2019-05-03T11:33:17.274Z,12.10
2019-05-03T11:36:00.951Z,12.01
2019-05-03T11:38:41.443Z,12.12
2019-05-03T11:41:29.200Z,12.12
2019-05-03T11:43:53.773Z,12.14
2019-05-03T11:46:27.485Z,12.14
2019-05-03T11:49:02.434Z,12.20
2019-05-03T11:51:37.347Z,12.28
2019-05-03T11:54:12.287Z,12.33
2019-05-03T11:56:47.557Z,12.24
2019-05-03T11:59:22.312Z,12.36
2019-05-03T12:02:06.269Z,12.53
2019-05-03T12:04:41.275Z,12.53
2019-05-03T12:07:18.598Z,12.41
2019-05-03T12:09:54.686Z,12.31
2019-05-03T12:12:32.301Z,12.01
2019-05-03T12:15:07.553Z,12.01
2019-05-03T12:17:51.848Z,12.22
2019-05-03T12:20:22.291Z,12.51
2019-05-03T12:22:57.660Z,12.81
2019-05-03T12:25:35.093Z,12.91
2019-05-03T12:28:09.294Z,12.99
2019-05-03T12:30:44.861Z,12.91
2019-05-03T12:33:19.693Z,12.90
2019-05-03T12:35:55.064Z,12.90
2019-05-03T12:38:29.253Z,12.95
2019-05-03T12:41:05.601Z,13.09
2019-05-03T12:43:40.289Z,13.15
2019-05-03T12:46:16.891Z,13.24
2019-05-03T12:48:52.695Z,13.48
2019-05-03T12:51:27.461Z,13.48
2019-05-03T12:54:04.687Z,13.59
2019-05-03T12:56:38.911Z,14.07
2019-05-03T12:59:23.745Z,14.07
2019-05-03T13:02:15.859Z,14.44
2019-05-03T13:04:51.984Z,14.52
2019-05-03T13:07:31.640Z,14.23
2019-05-03T13:10:07.261Z,14.23
2019-05-03T13:12:50.685Z,14.29
2019-05-03T13:15:19.278Z,14.00
2019-05-03T13:17:55.357Z,13.79
2019-05-03T13:20:30.300Z,13.48
2019-05-03T13:23:25.328Z,13.25
2019-05-03T13:26:00.423Z,13.64
2019-05-03T13:28:36.275Z,14.57
2019-05-03T13:31:11.279Z,15.32
2019-05-03T13:33:46.268Z,15.44
2019-05-03T13:36:21.641Z,16.13
2019-05-03T13:39:11.421Z,16.87
2019-05-03T13:41:34.952Z,17.26
2019-05-03T13:44:09.942Z,16.38
2019-05-03T13:46:44.849Z,15.56
2019-05-03T13:49:18.440Z,15.56
2019-05-03T13:51:52.823Z,15.05
2019-05-03T13:54:25.689Z,15.15
2019-05-03T13:56:59.941Z,14.91
2019-05-03T13:59:34.630Z,14.51
2019-05-03T14:02:14.988Z,14.56
2019-05-03T14:04:52.463Z,15.23
2019-05-03T14:07:21.090Z,18.64
2019-05-03T14:09:55.765Z,19.62
2019-05-03T14:12:28.655Z,19.62
2019-05-03T14:15:02.882Z,18.43
2019-05-03T14:17:37.288Z,18.39
2019-05-03T14:20:21.335Z,18.03
2019-05-03T14:22:55.941Z,18.08
2019-05-03T14:25:30.420Z,17.10
2019-05-03T14:28:05.456Z,18.11
2019-05-03T14:30:40.274Z,19.26
2019-05-03T14:33:14.764Z,20.50
2019-05-03T14:35:48.943Z,20.59
2019-05-03T14:38:22.274Z,20.25
2019-05-03T14:40:56.722Z,22.57
2019-05-03T14:43:30.701Z,22.57
2019-05-03T14:46:05.552Z,22.30
2019-05-03T14:48:40.129Z,22.97
2019-05-03T14:51:56.723Z,23.04
2019-05-03T14:54:34.497Z,22.21
2019-05-03T14:57:17.910Z,22.21
2019-05-03T15:00:16.842Z,20.97
2019-05-03T15:03:15.113Z,19.01
2019-05-03T15:05:49.906Z,17.09
2019-05-03T15:08:23.030Z,17.09
2019-05-03T15:10:56.263Z,17.84
2019-05-03T15:13:30.660Z,17.28
2019-05-03T15:16:05.390Z,17.28
2019-05-03T15:18:40.327Z,17.81
2019-05-03T15:21:14.943Z,17.69
2019-05-03T15:23:47.990Z,16.70
2019-05-03T15:26:22.323Z,16.22
2019-05-03T15:28:56.892Z,16.63
2019-05-03T15:31:31.314Z,15.81
2019-05-03T15:34:05.942Z,15.52
2019-05-03T15:36:40.323Z,16.29
2019-05-03T15:39:15.409Z,15.49
2019-05-03T15:41:50.088Z,14.89
2019-05-03T15:44:34.127Z,14.35
2019-05-03T15:47:17.087Z,14.35
2019-05-03T15:49:51.680Z,13.80
2019-05-03T15:52:26.276Z,13.80
2019-05-03T15:55:00.686Z,13.73
2019-05-03T15:57:35.729Z,13.46
2019-05-03T16:00:12.070Z,13.46
2019-05-03T16:02:46.681Z,13.57
2019-05-03T16:05:21.266Z,13.57
2019-05-03T16:07:55.866Z,13.59
2019-05-03T16:10:28.993Z,13.61
2019-05-03T16:13:01.857Z,13.49
2019-05-03T16:15:36.045Z,13.46
2019-05-03T16:18:10.664Z,13.23
2019-05-03T16:20:45.204Z,13.23
2019-05-03T16:23:19.875Z,13.09
2019-05-03T16:25:54.556Z,12.96
2019-05-03T16:28:38.109Z,13.00
2019-05-03T16:31:15.256Z,12.95
2019-05-03T16:33:49.881Z,12.91
2019-05-03T16:36:23.171Z,12.90
2019-05-03T16:38:57.714Z,12.67
2019-05-03T16:41:32.405Z,12.67
2019-05-03T16:44:07.258Z,12.66
2019-05-03T16:46:42.109Z,12.58
2019-05-03T16:49:16.758Z,12.57
2019-05-03T16:51:50.017Z,12.57
2019-05-03T16:54:25.453Z,12.55
2019-05-03T16:57:00.285Z,12.52
2019-05-03T16:59:35.268Z,12.43
2019-05-03T17:02:10.287Z,12.45
2019-05-03T17:04:57.378Z,12.37
2019-05-03T17:07:39.741Z,12.38
2019-05-03T17:10:25.426Z,12.38
2019-05-03T17:13:00.117Z,12.22
2019-05-03T17:15:35.338Z,12.30
2019-05-03T17:18:10.026Z,12.36
2019-05-03T17:20:45.350Z,12.33
2019-05-03T17:23:21.268Z,12.24
2019-05-03T17:25:55.950Z,12.25
2019-05-03T17:28:30.773Z,12.32
2019-05-03T17:31:05.409Z,12.32
2019-05-03T17:33:50.619Z,12.27
2019-05-03T17:36:16.536Z,12.27
2019-05-03T17:38:52.677Z,12.21
2019-05-03T17:41:49.262Z,12.15
2019-05-03T17:44:31.511Z,12.04
2019-05-03T17:47:06.283Z,11.87
2019-05-03T17:49:40.964Z,11.87
2019-05-03T17:52:34.454Z,11.79
2019-05-03T17:55:35.202Z,11.81
2019-05-03T17:58:17.102Z,11.81
2019-05-03T18:01:13.378Z,11.84
2019-05-03T18:03:49.955Z,11.65
2019-05-03T18:06:27.434Z,11.61
2019-05-03T18:09:21.360Z,11.60
2019-05-03T18:11:58.362Z,11.60
2019-05-03T18:14:34.509Z,11.52
2019-05-03T18:17:09.291Z,11.56
2019-05-03T18:19:44.853Z,11.64
2019-05-03T18:22:19.697Z,11.35
2019-05-03T18:24:54.653Z,11.35
2019-05-03T18:27:29.585Z,11.18
2019-05-03T18:30:04.723Z,11.16
2019-05-03T18:32:39.636Z,11.09
2019-05-03T18:35:15.296Z,11.03
2019-05-03T18:37:58.736Z,11.01
2019-05-03T18:40:35.443Z,10.93
2019-05-03T18:43:15.029Z,11.02
2019-05-03T18:46:09.678Z,11.03
2019-05-03T18:48:44.604Z,10.89
2019-05-03T18:51:19.453Z,10.83
2019-05-03T18:53:54.429Z,10.99
2019-05-03T18:56:29.290Z,10.92
2019-05-03T18:59:05.118Z,10.87
2019-05-03T19:01:39.955Z,10.79
2019-05-03T19:04:34.014Z,10.68
2019-05-03T19:07:04.334Z,10.63
2019-05-03T19:09:47.331Z,10.43
2019-05-03T19:12:55.079Z,10.43
2019-05-03T19:15:29.420Z,10.50
2019-05-03T19:18:07.906Z,10.58
2019-05-03T19:20:40.933Z,10.42
2019-05-03T19:23:15.475Z,10.50
2019-05-03T19:25:50.653Z,10.43
2019-05-03T19:28:25.504Z,10.54
2019-05-03T19:31:00.626Z,10.64
2019-05-03T19:33:37.298Z,10.62
2019-05-03T19:36:12.098Z,10.79
2019-05-03T19:38:46.960Z,10.69
2019-05-03T19:41:21.295Z,10.74
2019-05-03T19:43:56.280Z,10.78
2019-05-03T19:46:31.166Z,10.81
2019-05-03T19:49:06.134Z,10.72
2019-05-03T19:51:41.288Z,10.72
2019-05-03T19:54:16.139Z,10.74
2019-05-03T19:56:51.276Z,10.77
2019-05-03T20:00:00.264Z,10.59
2019-05-03T20:02:54.439Z,10.53
2019-05-03T20:05:45.340Z,10.32
2019-05-03T20:08:26.538Z,10.34
2019-05-03T20:11:16.961Z,10.24
2019-05-03T20:13:51.372Z,10.01
2019-05-03T20:16:26.279Z,10.01
2019-05-03T20:19:01.115Z,10.04
2019-05-03T20:21:35.899Z,10.04
2019-05-03T20:24:10.453Z,10.12
2019-05-03T20:26:45.289Z,10.05
2019-05-03T20:29:20.279Z,10.00
2019-05-03T20:31:55.293Z,9.95
2019-05-03T20:34:29.951Z,9.93
2019-05-03T20:37:05.321Z,9.97
2019-05-03T20:39:40.270Z,9.91
2019-05-03T20:42:17.271Z,9.94
2019-05-03T20:44:57.287Z,9.84
2019-05-03T20:47:35.295Z,9.88
2019-05-03T20:50:16.296Z,9.88
2019-05-03T20:52:51.128Z,9.93
2019-05-03T20:55:25.644Z,9.82
2019-05-03T20:58:00.104Z,9.90
2019-05-03T21:00:35.881Z,9.90
2019-05-03T21:03:09.096Z,9.82
2019-05-03T21:05:44.448Z,9.81
2019-05-03T21:08:19.098Z,9.68
2019-05-03T21:10:55.050Z,9.76
2019-05-03T21:13:41.810Z,9.76
2019-05-03T21:16:22.860Z,9.76
2019-05-03T21:19:20.586Z,9.74
2019-05-03T21:22:07.954Z,9.76
2019-05-03T21:24:47.781Z,9.75
2019-05-03T21:27:24.531Z,9.86
2019-05-03T21:29:59.936Z,9.91
2019-05-03T21:32:35.150Z,9.99
2019-05-03T21:35:10.267Z,10.04
2019-05-03T21:37:45.366Z,10.00
2019-05-03T21:40:19.949Z,10.07
2019-05-03T21:42:54.606Z,10.12
2019-05-03T21:45:36.334Z,10.12
2019-05-03T21:48:15.118Z,10.14
2019-05-03T21:50:49.675Z,10.16
2019-05-03T21:53:25.094Z,10.22
2019-05-03T21:55:59.679Z,10.32
2019-05-03T21:58:35.283Z,10.34
2019-05-03T22:01:11.293Z,10.39
2019-05-03T22:03:45.927Z,10.33
2019-05-03T22:06:20.285Z,10.32
2019-05-03T22:08:55.424Z,10.31
2019-05-03T22:11:29.941Z,10.31
2019-05-03T22:14:04.870Z,10.28
2019-05-03T22:16:55.389Z,10.19
2019-05-03T22:19:29.947Z,10.18
2019-05-03T22:22:22.272Z,10.16
2019-05-03T22:24:58.590Z,10.12
2019-05-03T22:27:39.294Z,10.06
2019-05-03T22:30:14.403Z,10.04
2019-05-03T22:32:49.290Z,10.07
2019-05-03T22:35:25.087Z,9.92
2019-05-03T22:38:00.235Z,9.92
2019-05-03T22:40:35.441Z,9.79
2019-05-03T22:43:10.292Z,9.77
2019-05-03T22:45:45.602Z,9.72
2019-05-03T22:48:20.990Z,9.62
2019-05-03T22:50:55.677Z,9.58
2019-05-03T22:53:28.864Z,9.54
2019-05-03T22:56:04.889Z,9.57
2019-05-03T22:58:40.170Z,9.51
2019-05-03T23:01:16.634Z,9.51
2019-05-03T23:03:51.304Z,9.43
2019-05-03T23:06:25.873Z,9.37
2019-05-03T23:08:58.713Z,9.37
2019-05-03T23:11:32.959Z,9.42
2019-05-03T23:14:07.679Z,9.41
2019-05-03T23:16:41.955Z,9.30
2019-05-03T23:19:16.309Z,9.25
2019-05-03T23:22:02.436Z,9.16
2019-05-03T23:24:36.813Z,9.10
2019-05-03T23:27:11.110Z,9.10
2019-05-03T23:29:45.693Z,8.97
2019-05-03T23:32:20.287Z,8.97
2019-05-03T23:34:55.288Z,8.97
2019-05-03T23:37:30.158Z,9.00
2019-05-03T23:40:05.294Z,8.88
2019-05-03T23:42:39.940Z,8.76
2019-05-03T23:45:15.386Z,8.89
2019-05-03T23:47:50.292Z,8.99
2019-05-03T23:50:25.037Z,9.01
2019-05-03T23:52:59.693Z,9.07
2019-05-03T23:55:40.314Z,9.06
2019-05-03T23:58:14.715Z,9.06
